sensor_id;sensor_type;location;lat;lon;timestamp;P1;durP1;ratioP1;P2;durP2;ratioP2
36945;SDS011;22858;51.148;6.948;2023-01-01T00:00:26;52.10;;;33.00;;
36945;SDS011;22858;51.148;6.948;2023-01-01T00:00:57;49.90;;;31.10;;
36945;SDS011;22858;51.148;6.948;2023-01-01T00:01:28;50.57;;;31.53;;
36945;SDS011;22858;51.148;6.948;2023-01-01T00:01:59;49.03;;;31.33;;
36945;SDS011;22858;51.148;6.948;2023-01-01T00:02:30;47.53;;;28.80;;
36945;SDS011;22858;51.148;6.948;2023-01-01T00:03:02;40.83;;;27.23;;
36945;SDS011;22858;51.148;6.948;2023-01-01T00:03:32;40.93;;;26.57;;
36945;SDS011;22858;51.148;6.948;2023-01-01T00:04:04;39.30;;;26.63;;
36945;SDS011;22858;51.148;6.948;2023-01-01T00:04:35;35.17;;;23.67;;
36945;SDS011;22858;51.148;6.948;2023-01-01T00:05:06;36.17;;;24.07;;
36945;SDS011;22858;51.148;6.948;2023-01-01T00:05:37;34.30;;;23.07;;
36945;SDS011;22858;51.148;6.948;2023-01-01T00:06:09;33.13;;;22.00;;
36945;SDS011;22858;51.148;6.948;2023-01-01T00:06:41;32.63;;;20.93;;
36945;SDS011;22858;51.148;6.948;2023-01-01T00:07:15;27.70;;;18.73;;
36945;SDS011;22858;51.148;6.948;2023-01-01T00:07:46;26.93;;;18.30;;
36945;SDS011;22858;51.148;6.948;2023-01-01T00:08:17;24.90;;;16.77;;
36945;SDS011;22858;51.148;6.948;2023-01-01T00:08:48;24.50;;;17.07;;
36945;SDS011;22858;51.148;6.948;2023-01-01T00:09:39;26.47;;;16.47;;
36945;SDS011;22858;51.148;6.948;2023-01-01T00:10:28;22.40;;;14.57;;
36945;SDS011;22858;51.148;6.948;2023-01-01T00:11:00;21.93;;;14.03;;
36945;SDS011;22858;51.148;6.948;2023-01-01T00:11:31;20.57;;;13.87;;
36945;SDS011;22858;51.148;6.948;2023-01-01T00:12:02;18.03;;;12.10;;
36945;SDS011;22858;51.148;6.948;2023-01-01T00:12:33;20.83;;;11.83;;
36945;SDS011;22858;51.148;6.948;2023-01-01T00:13:04;20.30;;;11.87;;
36945;SDS011;22858;51.148;6.948;2023-01-01T00:13:36;17.33;;;11.60;;
36945;SDS011;22858;51.148;6.948;2023-01-01T00:14:07;18.33;;;11.50;;
36945;SDS011;22858;51.148;6.948;2023-01-01T00:14:38;16.83;;;11.20;;
36945;SDS011;22858;51.148;6.948;2023-01-01T00:15:11;20.77;;;11.87;;
36945;SDS011;22858;51.148;6.948;2023-01-01T00:15:42;17.20;;;11.10;;
36945;SDS011;22858;51.148;6.948;2023-01-01T00:16:13;17.00;;;10.37;;
36945;SDS011;22858;51.148;6.948;2023-01-01T00:16:44;14.67;;;9.23;;
36945;SDS011;22858;51.148;6.948;2023-01-01T00:17:15;14.53;;;9.63;;
36945;SDS011;22858;51.148;6.948;2023-01-01T00:17:45;15.67;;;8.70;;
36945;SDS011;22858;51.148;6.948;2023-01-01T00:18:16;15.17;;;8.93;;
36945;SDS011;22858;51.148;6.948;2023-01-01T00:18:47;13.87;;;9.00;;
36945;SDS011;22858;51.148;6.948;2023-01-01T00:19:17;15.97;;;9.37;;
36945;SDS011;22858;51.148;6.948;2023-01-01T00:19:48;13.30;;;8.60;;
36945;SDS011;22858;51.148;6.948;2023-01-01T00:20:19;16.93;;;9.13;;
36945;SDS011;22858;51.148;6.948;2023-01-01T00:20:50;13.30;;;8.53;;
36945;SDS011;22858;51.148;6.948;2023-01-01T00:21:20;12.50;;;8.13;;
36945;SDS011;22858;51.148;6.948;2023-01-01T00:21:51;13.73;;;8.27;;
36945;SDS011;22858;51.148;6.948;2023-01-01T00:22:23;11.80;;;7.87;;
36945;SDS011;22858;51.148;6.948;2023-01-01T00:22:55;14.23;;;7.97;;
36945;SDS011;22858;51.148;6.948;2023-01-01T00:23:25;10.60;;;7.70;;
36945;SDS011;22858;51.148;6.948;2023-01-01T00:23:56;11.70;;;7.27;;
36945;SDS011;22858;51.148;6.948;2023-01-01T00:24:27;13.00;;;6.57;;
36945;SDS011;22858;51.148;6.948;2023-01-01T00:24:57;14.60;;;7.77;;
36945;SDS011;22858;51.148;6.948;2023-01-01T00:25:28;10.70;;;7.30;;
36945;SDS011;22858;51.148;6.948;2023-01-01T00:26:07;12.47;;;7.40;;
36945;SDS011;22858;51.148;6.948;2023-01-01T00:26:42;13.37;;;6.70;;
36945;SDS011;22858;51.148;6.948;2023-01-01T00:27:13;12.73;;;7.30;;
36945;SDS011;22858;51.148;6.948;2023-01-01T00:27:43;13.13;;;7.60;;
36945;SDS011;22858;51.148;6.948;2023-01-01T00:28:14;12.10;;;7.23;;
36945;SDS011;22858;51.148;6.948;2023-01-01T00:28:45;14.47;;;7.70;;
36945;SDS011;22858;51.148;6.948;2023-01-01T00:29:16;10.93;;;6.93;;
36945;SDS011;22858;51.148;6.948;2023-01-01T00:29:47;12.27;;;7.17;;
36945;SDS011;22858;51.148;6.948;2023-01-01T00:30:18;13.70;;;7.40;;
36945;SDS011;22858;51.148;6.948;2023-01-01T00:30:49;11.90;;;7.30;;
36945;SDS011;22858;51.148;6.948;2023-01-01T00:31:20;11.20;;;7.10;;
36945;SDS011;22858;51.148;6.948;2023-01-01T00:31:51;11.33;;;7.07;;
36945;SDS011;22858;51.148;6.948;2023-01-01T00:32:22;13.00;;;7.07;;
36945;SDS011;22858;51.148;6.948;2023-01-01T00:32:52;12.30;;;7.33;;
36945;SDS011;22858;51.148;6.948;2023-01-01T00:33:23;12.80;;;7.03;;
36945;SDS011;22858;51.148;6.948;2023-01-01T00:33:55;13.13;;;6.90;;
36945;SDS011;22858;51.148;6.948;2023-01-01T00:34:26;13.17;;;7.60;;
36945;SDS011;22858;51.148;6.948;2023-01-01T00:34:56;12.23;;;6.83;;
36945;SDS011;22858;51.148;6.948;2023-01-01T00:35:27;13.00;;;7.53;;
36945;SDS011;22858;51.148;6.948;2023-01-01T00:36:31;12.60;;;8.10;;
36945;SDS011;22858;51.148;6.948;2023-01-01T00:36:56;10.60;;;7.37;;
36945;SDS011;22858;51.148;6.948;2023-01-01T00:37:27;11.10;;;6.77;;
36945;SDS011;22858;51.148;6.948;2023-01-01T00:37:58;15.83;;;7.83;;
36945;SDS011;22858;51.148;6.948;2023-01-01T00:38:28;15.87;;;7.00;;
36945;SDS011;22858;51.148;6.948;2023-01-01T00:39:00;14.63;;;7.23;;
36945;SDS011;22858;51.148;6.948;2023-01-01T00:39:31;13.80;;;7.13;;
36945;SDS011;22858;51.148;6.948;2023-01-01T00:40:02;13.77;;;7.30;;
36945;SDS011;22858;51.148;6.948;2023-01-01T00:40:32;18.40;;;7.50;;
36945;SDS011;22858;51.148;6.948;2023-01-01T00:41:03;14.60;;;7.80;;
36945;SDS011;22858;51.148;6.948;2023-01-01T00:41:34;22.70;;;8.53;;
36945;SDS011;22858;51.148;6.948;2023-01-01T00:42:05;11.87;;;8.23;;
36945;SDS011;22858;51.148;6.948;2023-01-01T00:42:36;12.40;;;8.30;;
36945;SDS011;22858;51.148;6.948;2023-01-01T00:43:09;15.07;;;8.27;;
36945;SDS011;22858;51.148;6.948;2023-01-01T00:43:40;14.20;;;8.27;;
36945;SDS011;22858;51.148;6.948;2023-01-01T00:44:11;17.87;;;8.57;;
36945;SDS011;22858;51.148;6.948;2023-01-01T00:44:42;15.90;;;9.20;;
36945;SDS011;22858;51.148;6.948;2023-01-01T00:45:12;18.50;;;9.30;;
36945;SDS011;22858;51.148;6.948;2023-01-01T00:45:43;15.87;;;9.53;;
36945;SDS011;22858;51.148;6.948;2023-01-01T00:46:16;17.13;;;9.37;;
36945;SDS011;22858;51.148;6.948;2023-01-01T00:46:47;15.80;;;9.67;;
36945;SDS011;22858;51.148;6.948;2023-01-01T00:47:18;19.77;;;9.33;;
36945;SDS011;22858;51.148;6.948;2023-01-01T00:47:50;13.87;;;9.83;;
36945;SDS011;22858;51.148;6.948;2023-01-01T00:48:21;15.90;;;10.30;;
36945;SDS011;22858;51.148;6.948;2023-01-01T00:48:52;18.30;;;10.63;;
36945;SDS011;22858;51.148;6.948;2023-01-01T00:49:23;16.37;;;10.80;;
36945;SDS011;22858;51.148;6.948;2023-01-01T00:49:54;16.57;;;11.37;;
36945;SDS011;22858;51.148;6.948;2023-01-01T00:50:25;24.10;;;11.00;;
36945;SDS011;22858;51.148;6.948;2023-01-01T00:50:56;23.33;;;11.77;;
36945;SDS011;22858;51.148;6.948;2023-01-01T00:51:27;19.07;;;11.20;;
36945;SDS011;22858;51.148;6.948;2023-01-01T00:51:59;23.65;;;10.93;;
36945;SDS011;22858;51.148;6.948;2023-01-01T00:52:30;19.33;;;10.30;;
36945;SDS011;22858;51.148;6.948;2023-01-01T00:53:01;18.13;;;10.35;;
36945;SDS011;22858;51.148;6.948;2023-01-01T00:53:32;16.87;;;10.73;;
36945;SDS011;22858;51.148;6.948;2023-01-01T00:54:03;20.80;;;11.07;;
36945;SDS011;22858;51.148;6.948;2023-01-01T00:54:34;17.90;;;10.90;;
36945;SDS011;22858;51.148;6.948;2023-01-01T00:55:05;20.37;;;11.93;;
36945;SDS011;22858;51.148;6.948;2023-01-01T00:55:37;21.70;;;12.13;;
36945;SDS011;22858;51.148;6.948;2023-01-01T00:56:08;25.48;;;12.82;;
36945;SDS011;22858;51.148;6.948;2023-01-01T00:56:39;20.07;;;12.43;;
36945;SDS011;22858;51.148;6.948;2023-01-01T00:57:10;22.80;;;13.07;;
36945;SDS011;22858;51.148;6.948;2023-01-01T00:57:41;20.03;;;12.97;;
36945;SDS011;22858;51.148;6.948;2023-01-01T00:58:12;24.52;;;13.85;;
36945;SDS011;22858;51.148;6.948;2023-01-01T00:58:43;25.95;;;13.38;;
36945;SDS011;22858;51.148;6.948;2023-01-01T00:59:14;25.13;;;13.93;;
36945;SDS011;22858;51.148;6.948;2023-01-01T00:59:45;24.47;;;14.73;;
36945;SDS011;22858;51.148;6.948;2023-01-01T01:00:16;23.03;;;13.87;;
36945;SDS011;22858;51.148;6.948;2023-01-01T01:00:48;23.57;;;13.13;;
36945;SDS011;22858;51.148;6.948;2023-01-01T01:01:19;22.13;;;13.30;;
36945;SDS011;22858;51.148;6.948;2023-01-01T01:01:50;23.20;;;12.73;;
36945;SDS011;22858;51.148;6.948;2023-01-01T01:02:21;24.83;;;12.17;;
36945;SDS011;22858;51.148;6.948;2023-01-01T01:02:52;18.53;;;12.40;;
36945;SDS011;22858;51.148;6.948;2023-01-01T01:03:23;22.57;;;12.60;;
36945;SDS011;22858;51.148;6.948;2023-01-01T01:04:00;20.80;;;11.80;;
36945;SDS011;22858;51.148;6.948;2023-01-01T01:04:34;20.60;;;12.30;;
36945;SDS011;22858;51.148;6.948;2023-01-01T01:05:05;18.10;;;11.97;;
36945;SDS011;22858;51.148;6.948;2023-01-01T01:05:37;23.13;;;12.17;;
36945;SDS011;22858;51.148;6.948;2023-01-01T01:06:09;23.30;;;12.07;;
36945;SDS011;22858;51.148;6.948;2023-01-01T01:06:41;19.37;;;12.30;;
36945;SDS011;22858;51.148;6.948;2023-01-01T01:07:12;19.80;;;12.47;;
36945;SDS011;22858;51.148;6.948;2023-01-01T01:07:43;20.40;;;12.30;;
36945;SDS011;22858;51.148;6.948;2023-01-01T01:08:14;19.77;;;12.27;;
36945;SDS011;22858;51.148;6.948;2023-01-01T01:08:45;19.10;;;11.80;;
36945;SDS011;22858;51.148;6.948;2023-01-01T01:09:16;20.40;;;12.17;;
36945;SDS011;22858;51.148;6.948;2023-01-01T01:09:47;19.40;;;12.48;;
36945;SDS011;22858;51.148;6.948;2023-01-01T01:10:20;21.30;;;11.90;;
36945;SDS011;22858;51.148;6.948;2023-01-01T01:10:52;21.60;;;11.88;;
36945;SDS011;22858;51.148;6.948;2023-01-01T01:11:23;19.47;;;11.97;;
36945;SDS011;22858;51.148;6.948;2023-01-01T01:11:54;20.40;;;12.70;;
36945;SDS011;22858;51.148;6.948;2023-01-01T01:12:25;21.77;;;12.27;;
36945;SDS011;22858;51.148;6.948;2023-01-01T01:12:56;21.90;;;12.37;;
36945;SDS011;22858;51.148;6.948;2023-01-01T01:13:27;15.37;;;11.13;;
36945;SDS011;22858;51.148;6.948;2023-01-01T01:13:58;19.17;;;11.17;;
36945;SDS011;22858;51.148;6.948;2023-01-01T01:14:29;19.20;;;10.87;;
36945;SDS011;22858;51.148;6.948;2023-01-01T01:15:01;17.35;;;11.05;;
36945;SDS011;22858;51.148;6.948;2023-01-01T01:15:32;14.53;;;9.90;;
36945;SDS011;22858;51.148;6.948;2023-01-01T01:16:07;18.50;;;10.87;;
36945;SDS011;22858;51.148;6.948;2023-01-01T01:16:38;16.40;;;10.53;;
36945;SDS011;22858;51.148;6.948;2023-01-01T01:17:09;16.07;;;9.87;;
36945;SDS011;22858;51.148;6.948;2023-01-01T01:17:40;15.90;;;9.77;;
36945;SDS011;22858;51.148;6.948;2023-01-01T01:18:11;18.37;;;9.80;;
36945;SDS011;22858;51.148;6.948;2023-01-01T01:18:42;17.93;;;10.00;;
36945;SDS011;22858;51.148;6.948;2023-01-01T01:19:13;17.33;;;10.13;;
36945;SDS011;22858;51.148;6.948;2023-01-01T01:19:47;14.47;;;9.50;;
36945;SDS011;22858;51.148;6.948;2023-01-01T01:20:18;14.77;;;9.20;;
36945;SDS011;22858;51.148;6.948;2023-01-01T01:20:50;14.97;;;9.50;;
36945;SDS011;22858;51.148;6.948;2023-01-01T01:21:22;15.60;;;9.73;;
36945;SDS011;22858;51.148;6.948;2023-01-01T01:21:53;15.50;;;8.87;;
36945;SDS011;22858;51.148;6.948;2023-01-01T01:22:24;18.37;;;9.60;;
36945;SDS011;22858;51.148;6.948;2023-01-01T01:22:55;15.00;;;9.67;;
36945;SDS011;22858;51.148;6.948;2023-01-01T01:23:26;14.83;;;8.70;;
36945;SDS011;22858;51.148;6.948;2023-01-01T01:23:58;14.60;;;9.13;;
36945;SDS011;22858;51.148;6.948;2023-01-01T01:24:29;14.60;;;9.20;;
36945;SDS011;22858;51.148;6.948;2023-01-01T01:25:00;12.50;;;8.27;;
36945;SDS011;22858;51.148;6.948;2023-01-01T01:25:31;11.70;;;7.63;;
36945;SDS011;22858;51.148;6.948;2023-01-01T01:26:06;15.37;;;7.77;;
36945;SDS011;22858;51.148;6.948;2023-01-01T01:26:37;15.15;;;7.43;;
36945;SDS011;22858;51.148;6.948;2023-01-01T01:27:08;11.77;;;6.43;;
36945;SDS011;22858;51.148;6.948;2023-01-01T01:27:39;9.33;;;6.13;;
36945;SDS011;22858;51.148;6.948;2023-01-01T01:28:09;9.20;;;6.40;;
36945;SDS011;22858;51.148;6.948;2023-01-01T01:28:41;7.33;;;5.50;;
36945;SDS011;22858;51.148;6.948;2023-01-01T01:29:12;10.70;;;5.93;;
36945;SDS011;22858;51.148;6.948;2023-01-01T01:29:43;10.17;;;5.70;;
36945;SDS011;22858;51.148;6.948;2023-01-01T01:30:14;7.60;;;4.80;;
36945;SDS011;22858;51.148;6.948;2023-01-01T01:30:45;8.37;;;5.33;;
36945;SDS011;22858;51.148;6.948;2023-01-01T01:31:16;9.07;;;4.53;;
36945;SDS011;22858;51.148;6.948;2023-01-01T01:31:48;10.53;;;5.30;;
36945;SDS011;22858;51.148;6.948;2023-01-01T01:32:19;10.43;;;4.60;;
36945;SDS011;22858;51.148;6.948;2023-01-01T01:32:50;8.73;;;4.43;;
36945;SDS011;22858;51.148;6.948;2023-01-01T01:33:21;8.47;;;4.90;;
36945;SDS011;22858;51.148;6.948;2023-01-01T01:33:53;7.93;;;4.20;;
36945;SDS011;22858;51.148;6.948;2023-01-01T01:34:24;8.23;;;4.57;;
36945;SDS011;22858;51.148;6.948;2023-01-01T01:34:55;10.37;;;3.80;;
36945;SDS011;22858;51.148;6.948;2023-01-01T01:35:26;7.77;;;3.93;;
36945;SDS011;22858;51.148;6.948;2023-01-01T01:35:58;6.78;;;4.15;;
36945;SDS011;22858;51.148;6.948;2023-01-01T01:36:29;7.55;;;3.83;;
36945;SDS011;22858;51.148;6.948;2023-01-01T01:37:00;6.53;;;3.93;;
36945;SDS011;22858;51.148;6.948;2023-01-01T01:37:31;6.33;;;3.70;;
36945;SDS011;22858;51.148;6.948;2023-01-01T01:38:02;6.43;;;3.60;;
36945;SDS011;22858;51.148;6.948;2023-01-01T01:38:33;6.77;;;3.70;;
36945;SDS011;22858;51.148;6.948;2023-01-01T01:39:04;4.87;;;3.57;;
36945;SDS011;22858;51.148;6.948;2023-01-01T01:39:34;5.17;;;3.60;;
36945;SDS011;22858;51.148;6.948;2023-01-01T01:40:05;6.17;;;3.47;;
36945;SDS011;22858;51.148;6.948;2023-01-01T01:40:40;6.50;;;3.00;;
36945;SDS011;22858;51.148;6.948;2023-01-01T01:41:15;5.65;;;3.15;;
36945;SDS011;22858;51.148;6.948;2023-01-01T01:41:47;4.30;;;2.60;;
36945;SDS011;22858;51.148;6.948;2023-01-01T01:42:18;3.23;;;2.60;;
36945;SDS011;22858;51.148;6.948;2023-01-01T01:42:49;8.23;;;3.07;;
36945;SDS011;22858;51.148;6.948;2023-01-01T01:43:22;6.57;;;2.70;;
36945;SDS011;22858;51.148;6.948;2023-01-01T01:44:02;7.33;;;2.40;;
36945;SDS011;22858;51.148;6.948;2023-01-01T01:44:57;5.23;;;2.47;;
36945;SDS011;22858;51.148;6.948;2023-01-01T01:45:29;5.40;;;3.00;;
36945;SDS011;22858;51.148;6.948;2023-01-01T01:46:04;5.57;;;2.27;;
36945;SDS011;22858;51.148;6.948;2023-01-01T01:46:40;6.30;;;2.60;;
36945;SDS011;22858;51.148;6.948;2023-01-01T01:47:14;4.47;;;2.40;;
36945;SDS011;22858;51.148;6.948;2023-01-01T01:48:24;7.30;;;2.40;;
36945;SDS011;22858;51.148;6.948;2023-01-01T01:48:55;3.60;;;2.20;;
36945;SDS011;22858;51.148;6.948;2023-01-01T01:49:31;4.40;;;2.20;;
36945;SDS011;22858;51.148;6.948;2023-01-01T01:50:05;5.63;;;2.10;;
36945;SDS011;22858;51.148;6.948;2023-01-01T01:50:39;5.70;;;2.20;;
36945;SDS011;22858;51.148;6.948;2023-01-01T01:51:22;6.37;;;2.20;;
36945;SDS011;22858;51.148;6.948;2023-01-01T01:51:54;2.83;;;1.80;;
36945;SDS011;22858;51.148;6.948;2023-01-01T01:52:26;3.93;;;2.10;;
36945;SDS011;22858;51.148;6.948;2023-01-01T01:53:55;5.10;;;2.10;;
36945;SDS011;22858;51.148;6.948;2023-01-01T01:54:29;6.70;;;2.00;;
36945;SDS011;22858;51.148;6.948;2023-01-01T01:55:01;5.27;;;1.83;;
36945;SDS011;22858;51.148;6.948;2023-01-01T01:55:35;3.53;;;1.70;;
36945;SDS011;22858;51.148;6.948;2023-01-01T01:56:08;5.37;;;1.97;;
36945;SDS011;22858;51.148;6.948;2023-01-01T01:56:45;4.67;;;2.00;;
36945;SDS011;22858;51.148;6.948;2023-01-01T01:57:18;4.37;;;2.00;;
36945;SDS011;22858;51.148;6.948;2023-01-01T01:57:49;3.53;;;1.87;;
36945;SDS011;22858;51.148;6.948;2023-01-01T01:58:22;2.67;;;1.90;;
36945;SDS011;22858;51.148;6.948;2023-01-01T01:58:54;3.10;;;1.93;;
36945;SDS011;22858;51.148;6.948;2023-01-01T01:59:26;4.83;;;1.90;;
36945;SDS011;22858;51.148;6.948;2023-01-01T02:00:00;4.40;;;1.90;;
36945;SDS011;22858;51.148;6.948;2023-01-01T02:00:32;4.67;;;2.20;;
36945;SDS011;22858;51.148;6.948;2023-01-01T02:01:03;3.67;;;1.60;;
36945;SDS011;22858;51.148;6.948;2023-01-01T02:01:38;4.65;;;1.63;;
36945;SDS011;22858;51.148;6.948;2023-01-01T02:02:22;5.43;;;1.73;;
36945;SDS011;22858;51.148;6.948;2023-01-01T02:04:00;5.23;;;1.57;;
36945;SDS011;22858;51.148;6.948;2023-01-01T02:04:32;5.25;;;1.77;;
36945;SDS011;22858;51.148;6.948;2023-01-01T02:05:06;4.60;;;1.87;;
36945;SDS011;22858;51.148;6.948;2023-01-01T02:05:37;3.30;;;1.67;;
36945;SDS011;22858;51.148;6.948;2023-01-01T02:06:10;5.30;;;1.60;;
36945;SDS011;22858;51.148;6.948;2023-01-01T02:06:41;6.43;;;1.70;;
36945;SDS011;22858;51.148;6.948;2023-01-01T02:07:13;6.10;;;1.83;;
36945;SDS011;22858;51.148;6.948;2023-01-01T02:07:44;3.60;;;2.10;;
36945;SDS011;22858;51.148;6.948;2023-01-01T02:08:15;4.83;;;1.93;;
36945;SDS011;22858;51.148;6.948;2023-01-01T02:08:46;5.40;;;1.90;;
36945;SDS011;22858;51.148;6.948;2023-01-01T02:09:18;3.00;;;1.80;;
36945;SDS011;22858;51.148;6.948;2023-01-01T02:09:50;3.50;;;1.67;;
36945;SDS011;22858;51.148;6.948;2023-01-01T02:10:21;4.53;;;1.60;;
36945;SDS011;22858;51.148;6.948;2023-01-01T02:10:52;7.50;;;1.70;;
36945;SDS011;22858;51.148;6.948;2023-01-01T02:11:24;4.27;;;1.40;;
36945;SDS011;22858;51.148;6.948;2023-01-01T02:11:55;3.93;;;1.50;;
36945;SDS011;22858;51.148;6.948;2023-01-01T02:12:26;4.13;;;1.73;;
36945;SDS011;22858;51.148;6.948;2023-01-01T02:12:57;3.80;;;1.60;;
36945;SDS011;22858;51.148;6.948;2023-01-01T02:13:28;3.20;;;1.60;;
36945;SDS011;22858;51.148;6.948;2023-01-01T02:14:00;5.93;;;1.63;;
36945;SDS011;22858;51.148;6.948;2023-01-01T02:14:32;3.80;;;1.93;;
36945;SDS011;22858;51.148;6.948;2023-01-01T02:15:03;4.20;;;1.87;;
36945;SDS011;22858;51.148;6.948;2023-01-01T02:15:46;5.77;;;1.80;;
36945;SDS011;22858;51.148;6.948;2023-01-01T02:16:36;2.57;;;1.37;;
36945;SDS011;22858;51.148;6.948;2023-01-01T02:17:17;3.95;;;1.60;;
36945;SDS011;22858;51.148;6.948;2023-01-01T02:18:12;5.90;;;1.90;;
36945;SDS011;22858;51.148;6.948;2023-01-01T02:18:52;3.10;;;1.48;;
36945;SDS011;22858;51.148;6.948;2023-01-01T02:20:13;5.32;;;1.52;;
36945;SDS011;22858;51.148;6.948;2023-01-01T02:21:17;4.75;;;1.63;;
36945;SDS011;22858;51.148;6.948;2023-01-01T02:21:58;2.87;;;1.70;;
36945;SDS011;22858;51.148;6.948;2023-01-01T02:25:46;4.88;;;1.40;;
36945;SDS011;22858;51.148;6.948;2023-01-01T02:27:13;2.70;;;1.48;;
36945;SDS011;22858;51.148;6.948;2023-01-01T02:28:56;4.33;;;1.50;;
36945;SDS011;22858;51.148;6.948;2023-01-01T02:30:06;3.87;;;1.53;;
36945;SDS011;22858;51.148;6.948;2023-01-01T02:30:38;4.55;;;1.48;;
36945;SDS011;22858;51.148;6.948;2023-01-01T02:31:13;3.10;;;1.50;;
36945;SDS011;22858;51.148;6.948;2023-01-01T02:31:49;3.77;;;1.63;;
36945;SDS011;22858;51.148;6.948;2023-01-01T02:32:23;3.90;;;1.67;;
36945;SDS011;22858;51.148;6.948;2023-01-01T02:33:00;3.50;;;1.80;;
36945;SDS011;22858;51.148;6.948;2023-01-01T02:33:35;5.38;;;1.80;;
36945;SDS011;22858;51.148;6.948;2023-01-01T02:34:07;5.40;;;1.70;;
36945;SDS011;22858;51.148;6.948;2023-01-01T02:34:42;4.37;;;1.43;;
36945;SDS011;22858;51.148;6.948;2023-01-01T02:35:23;3.30;;;1.80;;
36945;SDS011;22858;51.148;6.948;2023-01-01T02:36:04;5.40;;;1.40;;
36945;SDS011;22858;51.148;6.948;2023-01-01T02:36:37;4.23;;;1.50;;
36945;SDS011;22858;51.148;6.948;2023-01-01T02:37:11;6.38;;;1.75;;
36945;SDS011;22858;51.148;6.948;2023-01-01T02:37:43;4.07;;;1.67;;
36945;SDS011;22858;51.148;6.948;2023-01-01T02:38:45;5.40;;;1.70;;
36945;SDS011;22858;51.148;6.948;2023-01-01T02:39:18;3.77;;;1.63;;
36945;SDS011;22858;51.148;6.948;2023-01-01T02:39:53;4.90;;;1.52;;
36945;SDS011;22858;51.148;6.948;2023-01-01T02:40:26;5.33;;;1.80;;
36945;SDS011;22858;51.148;6.948;2023-01-01T02:41:08;5.47;;;1.70;;
36945;SDS011;22858;51.148;6.948;2023-01-01T02:41:42;2.87;;;1.50;;
36945;SDS011;22858;51.148;6.948;2023-01-01T02:42:16;2.47;;;1.47;;
36945;SDS011;22858;51.148;6.948;2023-01-01T02:42:47;3.97;;;1.67;;
36945;SDS011;22858;51.148;6.948;2023-01-01T02:43:18;3.57;;;1.60;;
36945;SDS011;22858;51.148;6.948;2023-01-01T02:43:50;4.23;;;1.87;;
36945;SDS011;22858;51.148;6.948;2023-01-01T02:44:21;3.50;;;1.57;;
36945;SDS011;22858;51.148;6.948;2023-01-01T02:44:54;4.70;;;1.37;;
36945;SDS011;22858;51.148;6.948;2023-01-01T02:45:27;4.43;;;1.50;;
36945;SDS011;22858;51.148;6.948;2023-01-01T02:45:58;2.90;;;1.30;;
36945;SDS011;22858;51.148;6.948;2023-01-01T02:46:29;5.27;;;1.43;;
36945;SDS011;22858;51.148;6.948;2023-01-01T02:47:09;3.77;;;1.33;;
36945;SDS011;22858;51.148;6.948;2023-01-01T02:47:41;3.23;;;1.20;;
36945;SDS011;22858;51.148;6.948;2023-01-01T02:49:12;2.70;;;1.47;;
36945;SDS011;22858;51.148;6.948;2023-01-01T02:50:29;3.72;;;1.83;;
36945;SDS011;22858;51.148;6.948;2023-01-01T02:51:02;3.97;;;1.37;;
36945;SDS011;22858;51.148;6.948;2023-01-01T02:52:13;2.77;;;1.50;;
36945;SDS011;22858;51.148;6.948;2023-01-01T02:53:46;4.43;;;1.40;;
36945;SDS011;22858;51.148;6.948;2023-01-01T02:54:32;4.22;;;1.35;;
36945;SDS011;22858;51.148;6.948;2023-01-01T02:56:04;5.00;;;1.63;;
36945;SDS011;22858;51.148;6.948;2023-01-01T02:56:43;3.40;;;1.63;;
36945;SDS011;22858;51.148;6.948;2023-01-01T02:58:12;6.20;;;1.70;;
36945;SDS011;22858;51.148;6.948;2023-01-01T03:01:53;5.07;;;1.90;;
36945;SDS011;22858;51.148;6.948;2023-01-01T03:02:40;4.75;;;1.40;;
36945;SDS011;22858;51.148;6.948;2023-01-01T03:03:41;1.95;;;1.25;;
36945;SDS011;22858;51.148;6.948;2023-01-01T03:04:24;4.28;;;2.00;;
36945;SDS011;22858;51.148;6.948;2023-01-01T03:06:14;3.75;;;1.30;;
36945;SDS011;22858;51.148;6.948;2023-01-01T03:09:10;4.30;;;1.40;;
36945;SDS011;22858;51.148;6.948;2023-01-01T03:10:18;3.50;;;1.57;;
36945;SDS011;22858;51.148;6.948;2023-01-01T03:11:51;4.55;;;1.35;;
36945;SDS011;22858;51.148;6.948;2023-01-01T03:13:32;5.22;;;1.60;;
36945;SDS011;22858;51.148;6.948;2023-01-01T03:14:29;3.70;;;1.48;;
36945;SDS011;22858;51.148;6.948;2023-01-01T03:16:02;5.23;;;2.00;;
36945;SDS011;22858;51.148;6.948;2023-01-01T03:16:37;4.88;;;1.35;;
36945;SDS011;22858;51.148;6.948;2023-01-01T03:18:55;4.10;;;1.23;;
36945;SDS011;22858;51.148;6.948;2023-01-01T03:19:39;3.83;;;1.45;;
36945;SDS011;22858;51.148;6.948;2023-01-01T03:20:18;3.03;;;1.40;;
36945;SDS011;22858;51.148;6.948;2023-01-01T03:20:52;3.80;;;1.40;;
36945;SDS011;22858;51.148;6.948;2023-01-01T03:21:26;5.85;;;1.55;;
36945;SDS011;22858;51.148;6.948;2023-01-01T03:22:03;3.77;;;1.50;;
36945;SDS011;22858;51.148;6.948;2023-01-01T03:22:35;3.75;;;1.50;;
36945;SDS011;22858;51.148;6.948;2023-01-01T03:23:09;6.85;;;1.70;;
36945;SDS011;22858;51.148;6.948;2023-01-01T03:23:44;4.57;;;1.80;;
36945;SDS011;22858;51.148;6.948;2023-01-01T03:24:25;3.23;;;1.60;;
36945;SDS011;22858;51.148;6.948;2023-01-01T03:25:04;4.13;;;1.50;;
36945;SDS011;22858;51.148;6.948;2023-01-01T03:25:38;3.03;;;1.38;;
36945;SDS011;22858;51.148;6.948;2023-01-01T03:26:14;4.15;;;1.50;;
36945;SDS011;22858;51.148;6.948;2023-01-01T03:26:47;3.33;;;1.30;;
36945;SDS011;22858;51.148;6.948;2023-01-01T03:27:26;4.33;;;1.60;;
36945;SDS011;22858;51.148;6.948;2023-01-01T03:28:04;4.25;;;1.40;;
36945;SDS011;22858;51.148;6.948;2023-01-01T03:28:45;6.65;;;1.55;;
36945;SDS011;22858;51.148;6.948;2023-01-01T03:29:23;3.55;;;1.13;;
36945;SDS011;22858;51.148;6.948;2023-01-01T03:29:56;3.33;;;1.40;;
36945;SDS011;22858;51.148;6.948;2023-01-01T03:30:31;4.32;;;1.55;;
36945;SDS011;22858;51.148;6.948;2023-01-01T03:31:05;3.55;;;1.40;;
36945;SDS011;22858;51.148;6.948;2023-01-01T03:31:36;3.25;;;1.25;;
36945;SDS011;22858;51.148;6.948;2023-01-01T03:32:12;3.10;;;1.45;;
36945;SDS011;22858;51.148;6.948;2023-01-01T03:32:51;4.07;;;1.58;;
36945;SDS011;22858;51.148;6.948;2023-01-01T03:33:34;4.75;;;1.33;;
36945;SDS011;22858;51.148;6.948;2023-01-01T03:34:17;5.05;;;1.45;;
36945;SDS011;22858;51.148;6.948;2023-01-01T03:34:52;4.18;;;1.45;;
36945;SDS011;22858;51.148;6.948;2023-01-01T03:35:25;7.60;;;1.50;;
36945;SDS011;22858;51.148;6.948;2023-01-01T03:36:09;2.28;;;1.23;;
36945;SDS011;22858;51.148;6.948;2023-01-01T03:36:45;6.00;;;1.50;;
36945;SDS011;22858;51.148;6.948;2023-01-01T03:37:21;2.17;;;1.40;;
36945;SDS011;22858;51.148;6.948;2023-01-01T03:37:56;4.15;;;1.33;;
36945;SDS011;22858;51.148;6.948;2023-01-01T03:39:10;3.37;;;1.50;;
36945;SDS011;22858;51.148;6.948;2023-01-01T03:39:49;3.90;;;1.60;;
36945;SDS011;22858;51.148;6.948;2023-01-01T03:40:21;6.53;;;1.60;;
36945;SDS011;22858;51.148;6.948;2023-01-01T03:40:54;4.37;;;1.30;;
36945;SDS011;22858;51.148;6.948;2023-01-01T03:43:06;2.53;;;1.30;;
36945;SDS011;22858;51.148;6.948;2023-01-01T03:43:44;4.97;;;1.50;;
36945;SDS011;22858;51.148;6.948;2023-01-01T03:44:17;3.85;;;1.55;;
36945;SDS011;22858;51.148;6.948;2023-01-01T03:45:04;5.03;;;1.50;;
36945;SDS011;22858;51.148;6.948;2023-01-01T03:45:39;5.10;;;1.40;;
36945;SDS011;22858;51.148;6.948;2023-01-01T03:46:13;2.80;;;1.30;;
36945;SDS011;22858;51.148;6.948;2023-01-01T03:46:47;4.00;;;1.25;;
36945;SDS011;22858;51.148;6.948;2023-01-01T03:47:18;3.45;;;1.15;;
36945;SDS011;22858;51.148;6.948;2023-01-01T03:47:49;4.57;;;1.60;;
36945;SDS011;22858;51.148;6.948;2023-01-01T03:48:22;2.83;;;1.30;;
36945;SDS011;22858;51.148;6.948;2023-01-01T03:48:53;3.43;;;1.20;;